Time;durP1;ratioP1;P1;durP2;ratioP2;P2;SDS_P1;SDS_P2;PMS_P1;PMS_P2;Temp;Humidity;BMP_temperature;BMP_pressure;BME280_temperature;BME280_humidity;BME280_pressure;Samples;Min_cycle;Max_cycle;Signal;HPM_P1;HPM_P2
2023/03/23 00:02:14;;;;;;;2.17;1.20;;;;;;;;;;7388319;19;20140;-71
2023/03/23 00:04:39;;;;;;;2.47;1.30;;;;;;;;;;7390616;19;20523;-70
2023/03/23 00:07:05;;;;;;;3.58;1.50;;;;;;;;;;7385737;19;20066;-70
2023/03/23 00:09:34;;;;;;;4.65;1.50;;;;;;;;;;7385769;19;20007;-73
2023/03/23 00:12:04;;;;;;;2.78;1.42;;;;;;;;;;7386888;19;20050;-69
2023/03/23 00:14:40;;;;;;;3.40;1.15;;;;;;;;;;7387150;19;20020;-70
2023/03/23 00:17:10;;;;;;;1.92;1.42;;;;;;;;;;7387902;19;19999;-70
2023/03/23 00:19:44;;;;;;;3.95;1.50;;;;;;;;;;7387115;19;20010;-70
2023/03/23 00:22:10;;;;;;;2.70;1.25;;;;;;;;;;7386624;19;20075;-70
2023/03/23 00:24:36;;;;;;;2.00;1.35;;;;;;;;;;7386339;19;20104;-70
2023/03/23 00:27:03;;;;;;;2.42;1.40;;;;;;;;;;7387105;19;20002;-70
2023/03/23 00:29:28;;;;;;;4.63;1.35;;;;;;;;;;7387128;19;20092;-72
2023/03/23 00:31:53;;;;;;;2.60;1.20;;;;;;;;;;7386131;19;20006;-69
2023/03/23 00:34:21;;;;;;;3.03;1.42;;;;;;;;;;7386715;19;20115;-70
2023/03/23 00:36:53;;;;;;;3.90;1.23;;;;;;;;;;7384838;19;20070;-69
2023/03/23 00:39:19;;;;;;;3.60;1.50;;;;;;;;;;7390494;19;20006;-70
2023/03/23 00:41:46;;;;;;;2.40;1.10;;;;;;;;;;7392326;19;20013;-70
2023/03/23 00:44:16;;;;;;;3.80;1.30;;;;;;;;;;7394381;19;20105;-70
2023/03/23 00:46:44;;;;;;;2.33;1.20;;;;;;;;;;7393995;19;20464;-69
2023/03/23 00:49:13;;;;;;;1.58;1.10;;;;;;;;;;7394135;19;20266;-69
2023/03/23 00:51:40;;;;;;;1.85;1.10;;;;;;;;;;7393295;19;20036;-71
2023/03/23 00:54:06;;;;;;;4.30;1.48;;;;;;;;;;7393340;19;20003;-69
2023/03/23 00:56:31;;;;;;;1.95;1.20;;;;;;;;;;7392047;19;19998;-70
2023/03/23 00:58:56;;;;;;;2.72;1.38;;;;;;;;;;7393534;19;20001;-70
2023/03/23 01:01:25;;;;;;;2.25;1.33;;;;;;;;;;7391266;19;20006;-69
2023/03/23 01:03:52;;;;;;;2.22;1.40;;;;;;;;;;7392953;19;20006;-69
2023/03/23 01:06:18;;;;;;;1.92;1.20;;;;;;;;;;7391260;19;20420;-71
2023/03/23 01:08:46;;;;;;;1.98;1.30;;;;;;;;;;7393347;19;20002;-71
2023/03/23 01:11:16;;;;;;;3.00;1.30;;;;;;;;;;7392441;19;20468;-70
2023/03/23 01:13:42;;;;;;;1.45;1.10;;;;;;;;;;7393367;19;20003;-71
2023/03/23 01:16:09;;;;;;;1.23;1.00;;;;;;;;;;7390394;19;20011;-70
2023/03/23 01:18:34;;;;;;;3.13;1.30;;;;;;;;;;7393101;19;20467;-70
2023/03/23 01:21:05;;;;;;;1.42;0.88;;;;;;;;;;7392476;19;20015;-70
2023/03/23 01:23:33;;;;;;;1.60;1.15;;;;;;;;;;7393117;19;19998;-71
2023/03/23 01:26:12;;;;;;;2.42;1.20;;;;;;;;;;7390607;19;20002;-71
2023/03/23 01:28:39;;;;;;;1.88;1.20;;;;;;;;;;7391288;19;20006;-70
2023/03/23 01:31:11;;;;;;;1.27;1.02;;;;;;;;;;7390860;19;20551;-71
2023/03/23 01:33:38;;;;;;;1.10;1.00;;;;;;;;;;7392818;19;20002;-69
2023/03/23 01:36:06;;;;;;;1.73;1.23;;;;;;;;;;7392149;19;20444;-70
2023/03/23 01:38:33;;;;;;;1.52;1.00;;;;;;;;;;7392726;19;20002;-70
2023/03/23 01:40:58;;;;;;;3.85;1.40;;;;;;;;;;7391699;19;20208;-69
2023/03/23 01:43:24;;;;;;;1.55;1.20;;;;;;;;;;7393206;19;20010;-70
2023/03/23 01:45:50;;;;;;;2.33;1.25;;;;;;;;;;7390436;19;20126;-70
2023/03/23 01:48:33;;;;;;;2.15;1.40;;;;;;;;;;7395493;19;19998;-70
2023/03/23 01:51:06;;;;;;;1.30;1.10;;;;;;;;;;7388682;19;20006;-71
2023/03/23 01:53:42;;;;;;;2.78;1.38;;;;;;;;;;7392137;19;19998;-69
2023/03/23 01:56:11;;;;;;;3.10;1.50;;;;;;;;;;7389971;19;20003;-69
2023/03/23 01:58:38;;;;;;;1.90;1.25;;;;;;;;;;7395060;19;20005;-70
2023/03/23 02:01:11;;;;;;;1.80;1.27;;;;;;;;;;7391573;19;20012;-70
2023/03/23 02:03:38;;;;;;;2.15;1.40;;;;;;;;;;7393565;19;20463;-71
2023/03/23 02:06:03;;;;;;;1.52;1.17;;;;;;;;;;7389526;19;20005;-70
2023/03/23 02:08:32;;;;;;;2.65;1.40;;;;;;;;;;7391480;19;20002;-69
2023/03/23 02:10:58;;;;;;;1.80;1.33;;;;;;;;;;7391590;19;20011;-70
2023/03/23 02:13:23;;;;;;;2.20;1.20;;;;;;;;;;7393040;19;20014;-71
2023/03/23 02:16:24;;;;;;;2.13;1.38;;;;;;;;;;7394214;19;20001;-71
2023/03/23 02:19:23;;;;;;;3.55;1.30;;;;;;;;;;7389649;19;20056;-71
2023/03/23 02:22:00;;;;;;;3.67;1.25;;;;;;;;;;7390601;19;20027;-72
2023/03/23 02:24:52;;;;;;;2.17;1.13;;;;;;;;;;7390666;19;20002;-70
2023/03/23 02:27:41;;;;;;;3.42;1.50;;;;;;;;;;7391182;19;20472;-69
2023/03/23 02:30:32;;;;;;;2.58;1.40;;;;;;;;;;7391041;19;19999;-70
2023/03/23 02:33:29;;;;;;;1.27;1.17;;;;;;;;;;7392483;19;20002;-70
2023/03/23 02:36:43;;;;;;;4.25;1.52;;;;;;;;;;7389086;19;20471;-70
2023/03/23 02:39:13;;;;;;;3.47;1.60;;;;;;;;;;7390831;19;20487;-70
2023/03/23 02:41:49;;;;;;;2.03;1.30;;;;;;;;;;7393406;19;20033;-70
2023/03/23 02:44:16;;;;;;;4.28;1.48;;;;;;;;;;7389757;19;20468;-69
2023/03/23 02:46:43;;;;;;;2.08;1.15;;;;;;;;;;7391036;19;20009;-69
2023/03/23 02:49:11;;;;;;;2.47;1.35;;;;;;;;;;7389995;19;20082;-70
2023/03/23 02:51:36;;;;;;;2.30;1.50;;;;;;;;;;7389263;19;20027;-70
2023/03/23 02:54:04;;;;;;;2.42;1.60;;;;;;;;;;7389508;19;19998;-70
2023/03/23 02:56:32;;;;;;;3.45;1.10;;;;;;;;;;7390108;19;20047;-69
2023/03/23 02:58:58;;;;;;;1.80;1.13;;;;;;;;;;7387716;19;20337;-70
2023/03/23 03:01:28;;;;;;;3.20;1.70;;;;;;;;;;7388945;19;20033;-70
2023/03/23 03:03:56;;;;;;;2.47;1.30;;;;;;;;;;7388806;19;20006;-70
2023/03/23 03:06:31;;;;;;;2.67;1.45;;;;;;;;;;7387295;19;20098;-70
2023/03/23 03:09:25;;;;;;;1.45;1.17;;;;;;;;;;7389286;19;20002;-70
2023/03/23 03:11:59;;;;;;;2.47;1.70;;;;;;;;;;7389152;19;20003;-70
2023/03/23 03:14:33;;;;;;;2.20;1.50;;;;;;;;;;7388524;19;20539;-69
2023/03/23 03:17:06;;;;;;;1.83;1.40;;;;;;;;;;7390789;19;19998;-70
2023/03/23 03:19:35;;;;;;;2.67;1.50;;;;;;;;;;7389517;19;20009;-69
2023/03/23 03:22:02;;;;;;;2.30;1.45;;;;;;;;;;7388394;19;20023;-69
2023/03/23 03:24:30;;;;;;;2.72;1.48;;;;;;;;;;7388043;19;20358;-69
2023/03/23 03:26:59;;;;;;;2.47;1.50;;;;;;;;;;7386838;19;20027;-70
2023/03/23 03:29:33;;;;;;;2.17;1.38;;;;;;;;;;7388802;19;20002;-69
2023/03/23 03:32:01;;;;;;;4.07;1.60;;;;;;;;;;7388030;19;20469;-70
2023/03/23 03:34:27;;;;;;;2.97;2.08;;;;;;;;;;7387852;19;20739;-70
2023/03/23 03:36:58;;;;;;;6.38;2.35;;;;;;;;;;7388562;19;20005;-71
2023/03/23 03:39:24;;;;;;;4.70;1.73;;;;;;;;;;7389024;19;20424;-70
2023/03/23 03:41:49;;;;;;;2.10;1.50;;;;;;;;;;7390446;19;20011;-71
2023/03/23 03:44:15;;;;;;;1.90;1.60;;;;;;;;;;7387493;19;20002;-71
2023/03/23 03:46:40;;;;;;;2.83;1.40;;;;;;;;;;7388329;19;20027;-71
2023/03/23 03:49:08;;;;;;;3.17;1.60;;;;;;;;;;7387962;19;20002;-70
2023/03/23 03:51:35;;;;;;;2.90;1.67;;;;;;;;;;7387506;19;19999;-71
2023/03/23 03:54:01;;;;;;;3.60;1.40;;;;;;;;;;7387719;19;20326;-69
2023/03/23 03:56:26;;;;;;;5.25;1.67;;;;;;;;;;7387765;19;20062;-70
2023/03/23 03:58:53;;;;;;;3.92;1.60;;;;;;;;;;7387758;19;20527;-70
2023/03/23 04:01:23;;;;;;;3.70;1.63;;;;;;;;;;7390504;19;20019;-70
2023/03/23 04:03:50;;;;;;;2.72;1.40;;;;;;;;;;7387911;19;20483;-70
2023/03/23 04:06:16;;;;;;;2.97;1.42;;;;;;;;;;7386217;19;20019;-70
2023/03/23 04:08:42;;;;;;;2.75;1.58;;;;;;;;;;7388096;19;20178;-71
2023/03/23 04:11:10;;;;;;;2.25;1.35;;;;;;;;;;7387104;19;19998;-71
2023/03/23 04:13:35;;;;;;;3.45;1.60;;;;;;;;;;7387739;19;20009;-70
2023/03/23 04:16:01;;;;;;;2.85;1.50;;;;;;;;;;7398101;19;20002;-70
2023/03/23 04:18:28;;;;;;;2.90;1.75;;;;;;;;;;7401908;19;20037;-70
2023/03/23 04:20:53;;;;;;;3.15;1.65;;;;;;;;;;7399799;19;20417;-71
2023/03/23 04:23:21;;;;;;;2.55;1.70;;;;;;;;;;7401714;19;20015;-71
2023/03/23 04:25:47;;;;;;;4.28;1.80;;;;;;;;;;7400462;19;19998;-70
2023/03/23 04:28:16;;;;;;;3.97;1.40;;;;;;;;;;7402029;19;19998;-71
2023/03/23 04:30:42;;;;;;;5.60;1.80;;;;;;;;;;7402004;19;20548;-71
2023/03/23 04:33:14;;;;;;;2.95;1.60;;;;;;;;;;7402211;19;20475;-70
2023/03/23 04:35:45;;;;;;;2.65;1.50;;;;;;;;;;7400140;19;20025;-70
2023/03/23 04:38:13;;;;;;;2.70;1.50;;;;;;;;;;7401899;19;20028;-70
2023/03/23 04:40:40;;;;;;;2.75;1.67;;;;;;;;;;7401025;19;20002;-70
2023/03/23 04:43:06;;;;;;;4.38;1.50;;;;;;;;;;7404136;19;20002;-70
2023/03/23 04:45:33;;;;;;;2.17;1.30;;;;;;;;;;7398508;19;20010;-72
2023/03/23 04:48:01;;;;;;;4.13;1.65;;;;;;;;;;7399378;19;20009;-72
2023/03/23 04:50:30;;;;;;;3.67;1.67;;;;;;;;;;7398761;19;19999;-72
2023/03/23 04:52:57;;;;;;;3.08;1.55;;;;;;;;;;7398839;19;19995;-74
2023/03/23 04:55:24;;;;;;;3.70;1.60;;;;;;;;;;7398091;19;20290;-73
2023/03/23 04:57:49;;;;;;;2.97;1.80;;;;;;;;;;7398815;19;20520;-74
2023/03/23 05:00:16;;;;;;;4.57;1.73;;;;;;;;;;7394237;19;19999;-74
2023/03/23 05:02:43;;;;;;;3.38;1.80;;;;;;;;;;7400832;19;20002;-73
2023/03/23 05:05:10;;;;;;;3.05;1.80;;;;;;;;;;7397182;19;20005;-73
2023/03/23 05:07:40;;;;;;;2.85;1.85;;;;;;;;;;7401412;19;20029;-73
2023/03/23 05:10:10;;;;;;;3.25;1.80;;;;;;;;;;7400620;19;19990;-74
2023/03/23 05:12:36;;;;;;;3.30;2.33;;;;;;;;;;7398321;19;19998;-74
2023/03/23 05:15:01;;;;;;;2.95;1.70;;;;;;;;;;7401260;19;20002;-73
2023/03/23 05:17:29;;;;;;;2.53;1.60;;;;;;;;;;7401805;19;20067;-73
2023/03/23 05:19:56;;;;;;;2.63;1.85;;;;;;;;;;7400073;19;20480;-74
2023/03/23 05:22:22;;;;;;;2.75;1.67;;;;;;;;;;7401134;19;20007;-73
2023/03/23 05:24:51;;;;;;;3.05;1.80;;;;;;;;;;7399611;19;20001;-74
2023/03/23 05:27:17;;;;;;;3.55;1.77;;;;;;;;;;7395628;19;19991;-74
2023/03/23 05:29:42;;;;;;;3.40;1.85;;;;;;;;;;7395491;19;20025;-74
2023/03/23 05:32:08;;;;;;;3.72;1.73;;;;;;;;;;7392093;19;20005;-74
2023/03/23 05:34:34;;;;;;;2.28;1.48;;;;;;;;;;7390335;19;20002;-74
2023/03/23 05:37:01;;;;;;;3.45;1.67;;;;;;;;;;7391182;19;20021;-74
2023/03/23 05:39:27;;;;;;;3.72;2.03;;;;;;;;;;7390124;19;19998;-74
2023/03/23 05:41:53;;;;;;;3.42;1.60;;;;;;;;;;7325302;19;20006;-60
2023/03/23 05:44:19;;;;;;;3.88;1.80;;;;;;;;;;7389311;19;20005;-59
2023/03/23 05:46:45;;;;;;;2.72;1.60;;;;;;;;;;7383238;19;20015;-60
2023/03/23 05:49:10;;;;;;;6.22;1.60;;;;;;;;;;7386862;19;20369;-60
2023/03/23 05:51:36;;;;;;;4.18;1.42;;;;;;;;;;7386588;19;19990;-60
2023/03/23 05:54:03;;;;;;;7.30;2.10;;;;;;;;;;7388145;19;20627;-59
2023/03/23 05:56:30;;;;;;;4.53;1.60;;;;;;;;;;7383287;19;20002;-59
2023/03/23 05:58:55;;;;;;;4.03;1.65;;;;;;;;;;7385458;19;20003;-57
2023/03/23 06:01:21;;;;;;;2.90;1.60;;;;;;;;;;7387549;19;20390;-59
2023/03/23 06:03:46;;;;;;;4.90;1.90;;;;;;;;;;7387995;19;19994;-57
2023/03/23 06:06:12;;;;;;;3.95;1.80;;;;;;;;;;7389491;19;19998;-58
2023/03/23 06:08:38;;;;;;;4.00;2.10;;;;;;;;;;7393719;19;19997;-58
2023/03/23 06:11:04;;;;;;;2.83;1.73;;;;;;;;;;7392922;19;20332;-72
2023/03/23 06:13:29;;;;;;;4.80;1.85;;;;;;;;;;7391573;19;20488;-74
2023/03/23 06:15:58;;;;;;;3.38;1.80;;;;;;;;;;7387793;19;20002;-75
2023/03/23 06:18:24;;;;;;;6.47;2.00;;;;;;;;;;7392524;19;20333;-73
2023/03/23 06:20:51;;;;;;;3.97;1.88;;;;;;;;;;7389283;19;20002;-74
2023/03/23 06:23:17;;;;;;;4.22;1.92;;;;;;;;;;7391832;19;20344;-74
2023/03/23 06:25:43;;;;;;;4.03;2.00;;;;;;;;;;7388039;19;19998;-73
2023/03/23 06:28:09;;;;;;;3.25;1.73;;;;;;;;;;7387451;19;20002;-74
2023/03/23 06:30:35;;;;;;;2.75;1.90;;;;;;;;;;7387296;19;20348;-74
2023/03/23 06:33:02;;;;;;;3.05;1.75;;;;;;;;;;7393279;19;20008;-74
2023/03/23 06:35:27;;;;;;;2.92;1.80;;;;;;;;;;7392196;19;19995;-74
2023/03/23 06:37:53;;;;;;;4.65;2.00;;;;;;;;;;7392304;19;19991;-73
2023/03/23 06:40:19;;;;;;;4.43;1.77;;;;;;;;;;7391903;19;20338;-74
2023/03/23 06:42:45;;;;;;;3.72;2.03;;;;;;;;;;7392089;19;20460;-74
2023/03/23 06:45:10;;;;;;;3.60;1.70;;;;;;;;;;7390923;19;20002;-74
2023/03/23 06:47:35;;;;;;;4.43;1.77;;;;;;;;;;7392019;19;20016;-74
2023/03/23 06:50:01;;;;;;;4.07;1.88;;;;;;;;;;7388394;19;19995;-74
2023/03/23 06:52:26;;;;;;;3.60;2.00;;;;;;;;;;7390761;19;19991;-74
2023/03/23 06:54:53;;;;;;;3.97;1.95;;;;;;;;;;7388140;19;20003;-74
2023/03/23 06:57:19;;;;;;;5.40;2.00;;;;;;;;;;7392012;19;19998;-74
2023/03/23 06:59:45;;;;;;;5.05;2.20;;;;;;;;;;7388303;19;20636;-74
2023/03/23 07:02:12;;;;;;;5.32;2.00;;;;;;;;;;7388772;19;20022;-74
2023/03/23 07:04:38;;;;;;;3.05;1.90;;;;;;;;;;7391363;19;20058;-74
2023/03/23 07:07:04;;;;;;;4.03;2.20;;;;;;;;;;7389476;19;20001;-74
2023/03/23 07:09:30;;;;;;;4.47;2.28;;;;;;;;;;7390292;19;19998;-73
2023/03/23 07:11:55;;;;;;;3.13;1.85;;;;;;;;;;7389763;19;20001;-73
2023/03/23 07:14:21;;;;;;;4.70;1.98;;;;;;;;;;7390217;19;20002;-73
2023/03/23 07:16:47;;;;;;;3.83;2.03;;;;;;;;;;7391552;19;20001;-74
2023/03/23 07:19:12;;;;;;;4.00;1.95;;;;;;;;;;7391324;19;19998;-74
2023/03/23 07:21:37;;;;;;;3.35;1.85;;;;;;;;;;7391097;19;19991;-74
2023/03/23 07:24:03;;;;;;;3.92;1.85;;;;;;;;;;7390425;19;20468;-74
2023/03/23 07:26:28;;;;;;;4.38;1.73;;;;;;;;;;7389051;19;19990;-74
2023/03/23 07:28:54;;;;;;;3.80;1.90;;;;;;;;;;7387640;19;19994;-74
2023/03/23 07:31:20;;;;;;;4.35;1.85;;;;;;;;;;7387884;19;20012;-74
2023/03/23 07:33:45;;;;;;;4.15;2.03;;;;;;;;;;7390845;19;19995;-73
2023/03/23 07:36:12;;;;;;;3.58;2.20;;;;;;;;;;7388947;19;20448;-73
2023/03/23 07:38:37;;;;;;;5.13;2.10;;;;;;;;;;7387457;19;20019;-73
2023/03/23 07:41:02;;;;;;;6.28;1.98;;;;;;;;;;7387934;19;19990;-74
2023/03/23 07:43:29;;;;;;;4.72;1.92;;;;;;;;;;7386682;19;20429;-74
2023/03/23 07:45:54;;;;;;;3.22;1.80;;;;;;;;;;7388342;19;20003;-74
2023/03/23 07:48:20;;;;;;;4.93;2.25;;;;;;;;;;7392102;19;20256;-73
2023/03/23 07:50:45;;;;;;;4.07;1.98;;;;;;;;;;7384548;19;19991;-73
2023/03/23 07:53:11;;;;;;;4.63;2.00;;;;;;;;;;7389696;19;20016;-75
2023/03/23 07:55:37;;;;;;;4.63;1.83;;;;;;;;;;7386306;19;20023;-74
2023/03/23 07:58:02;;;;;;;3.17;1.80;;;;;;;;;;7389309;19;20004;-73
2023/03/23 08:00:29;;;;;;;3.80;1.90;;;;;;;;;;7389453;19;20460;-74
2023/03/23 08:02:57;;;;;;;4.47;2.20;;;;;;;;;;7389100;19;20010;-73
2023/03/23 08:05:25;;;;;;;3.72;2.03;;;;;;;;;;7387690;19;20030;-73
2023/03/23 08:07:51;;;;;;;2.97;1.67;;;;;;;;;;7388863;19;20507;-73
2023/03/23 08:10:17;;;;;;;4.00;1.90;;;;;;;;;;7389445;19;19995;-73
2023/03/23 08:12:44;;;;;;;4.13;1.80;;;;;;;;;;7388585;19;20015;-73
2023/03/23 08:15:12;;;;;;;3.78;1.85;;;;;;;;;;7385972;19;19994;-73
2023/03/23 08:17:40;;;;;;;5.68;2.10;;;;;;;;;;7389169;19;20202;-74
2023/03/23 08:20:12;;;;;;;5.50;2.05;;;;;;;;;;7388933;19;20301;-73
2023/03/23 08:22:38;;;;;;;4.53;2.10;;;;;;;;;;7384341;19;20009;-73
2023/03/23 08:25:05;;;;;;;3.72;1.83;;;;;;;;;;7386717;19;19999;-73
2023/03/23 08:27:31;;;;;;;3.38;1.90;;;;;;;;;;7387511;19;20436;-73
2023/03/23 08:29:57;;;;;;;4.70;1.90;;;;;;;;;;7388048;19;20014;-74
2023/03/23 08:32:23;;;;;;;3.45;1.67;;;;;;;;;;7388677;19;20019;-74
2023/03/23 08:34:49;;;;;;;4.32;1.83;;;;;;;;;;7385775;19;20027;-73
2023/03/23 08:37:15;;;;;;;3.45;1.70;;;;;;;;;;7387295;19;20318;-73
2023/03/23 08:39:40;;;;;;;3.50;1.90;;;;;;;;;;7387762;19;19991;-73
2023/03/23 08:42:05;;;;;;;3.92;1.90;;;;;;;;;;7388161;19;19994;-73
2023/03/23 08:44:31;;;;;;;4.57;2.10;;;;;;;;;;7389161;19;20054;-74
2023/03/23 08:46:56;;;;;;;3.88;2.10;;;;;;;;;;7386581;19;20527;-73
2023/03/23 08:49:23;;;;;;;3.75;1.92;;;;;;;;;;7389278;19;20451;-73
2023/03/23 08:51:49;;;;;;;2.42;1.80;;;;;;;;;;7387507;19;19995;-73
2023/03/23 08:54:14;;;;;;;6.20;1.80;;;;;;;;;;7388595;19;20006;-74
2023/03/23 08:56:39;;;;;;;2.55;1.60;;;;;;;;;;7383648;19;20013;-73
2023/03/23 08:59:06;;;;;;;3.17;1.90;;;;;;;;;;7386387;19;20038;-73
2023/03/23 09:01:32;;;;;;;3.45;1.73;;;;;;;;;;7389895;19;20347;-73
2023/03/23 09:03:58;;;;;;;4.20;1.70;;;;;;;;;;7396298;19;20014;-73
2023/03/23 09:06:23;;;;;;;2.92;1.73;;;;;;;;;;7393908;19;20452;-74
2023/03/23 09:08:49;;;;;;;3.20;1.77;;;;;;;;;;7393263;19;20002;-73
2023/03/23 09:11:15;;;;;;;4.40;1.80;;;;;;;;;;7392259;19;19998;-74
2023/03/23 09:13:40;;;;;;;3.15;1.73;;;;;;;;;;7395679;19;20304;-74
2023/03/23 09:16:07;;;;;;;2.65;1.90;;;;;;;;;;7392745;19;20002;-74
2023/03/23 09:18:33;;;;;;;3.08;1.70;;;;;;;;;;7392720;19;20342;-74
2023/03/23 09:20:59;;;;;;;2.60;1.70;;;;;;;;;;7393427;19;19999;-74
2023/03/23 09:23:25;;;;;;;3.20;1.60;;;;;;;;;;7394947;19;19998;-74
2023/03/23 09:25:51;;;;;;;3.47;1.80;;;;;;;;;;7392883;19;19998;-74
2023/03/23 09:28:17;;;;;;;3.28;1.55;;;;;;;;;;7396148;19;19990;-75
2023/03/23 09:30:44;;;;;;;3.08;1.50;;;;;;;;;;7390744;19;20448;-74
2023/03/23 09:33:09;;;;;;;1.98;1.42;;;;;;;;;;7394893;19;20002;-74
2023/03/23 09:35:38;;;;;;;2.65;1.60;;;;;;;;;;7392782;19;19999;-74
2023/03/23 09:38:04;;;;;;;3.10;1.70;;;;;;;;;;7393824;19;20722;-74
2023/03/23 09:40:46;;;;;;;3.28;1.40;;;;;;;;;;7395445;19;19998;-75
2023/03/23 09:43:34;;;;;;;1.67;1.38;;;;;;;;;;7393752;19;20492;-75
2023/03/23 09:46:38;;;;;;;2.70;1.48;;;;;;;;;;7393153;19;20074;-74
2023/03/23 09:49:11;;;;;;;3.72;1.88;;;;;;;;;;7395462;19;19999;-74
2023/03/23 09:51:51;;;;;;;2.42;1.50;;;;;;;;;;7394279;19;19998;-75
2023/03/23 09:54:36;;;;;;;1.63;1.33;;;;;;;;;;7393895;19;19995;-74
2023/03/23 09:57:02;;;;;;;3.95;1.45;;;;;;;;;;7395112;19;19994;-74
2023/03/23 09:59:44;;;;;;;1.38;1.20;;;;;;;;;;7393538;19;20025;-74
2023/03/23 10:02:21;;;;;;;2.42;1.50;;;;;;;;;;7394201;19;20002;-74
2023/03/23 10:04:49;;;;;;;3.88;1.67;;;;;;;;;;7391632;19;20023;-74
2023/03/23 10:07:21;;;;;;;1.40;1.30;;;;;;;;;;7393149;19;20432;-74
2023/03/23 10:09:51;;;;;;;2.65;1.58;;;;;;;;;;7393329;19;19999;-74
2023/03/23 10:12:19;;;;;;;3.00;1.50;;;;;;;;;;7391929;19;20369;-74
2023/03/23 10:15:01;;;;;;;2.85;1.60;;;;;;;;;;7388958;19;20456;-74
2023/03/23 10:17:35;;;;;;;3.42;1.55;;;;;;;;;;7390824;19;20559;-74
2023/03/23 10:20:14;;;;;;;1.55;1.33;;;;;;;;;;7393711;19;20039;-74
2023/03/23 10:22:53;;;;;;;3.55;1.50;;;;;;;;;;7391080;19;20444;-74
2023/03/23 10:25:26;;;;;;;2.85;1.67;;;;;;;;;;7391094;19;19998;-74
2023/03/23 10:28:10;;;;;;;1.98;1.42;;;;;;;;;;7393336;19;20026;-74
2023/03/23 10:30:53;;;;;;;1.30;1.13;;;;;;;;;;7389042;19;20552;-75
2023/03/23 10:33:34;;;;;;;2.28;1.48;;;;;;;;;;7392033;19;20163;-74
2023/03/23 10:36:10;;;;;;;;;;;;;;;;;;7392618;19;20099;-74
2023/03/23 10:38:40;;;;;;;2.88;1.65;;;;;;;;;;7389912;19;19915;-74
2023/03/23 10:41:15;;;;;;;2.40;1.40;;;;;;;;;;7390627;19;20023;-74
2023/03/23 10:43:41;;;;;;;2.30;1.50;;;;;;;;;;7390269;19;20007;-73
2023/03/23 10:46:37;;;;;;;4.03;1.92;;;;;;;;;;7388565;19;20751;-70
2023/03/23 10:49:08;;;;;;;2.58;1.23;;;;;;;;;;7388519;19;20076;-71
2023/03/23 10:51:37;;;;;;;;;;;;;;;;;;7392805;19;19999;-70
2023/03/23 10:54:05;;;;;;;2.05;1.27;;;;;;;;;;7393706;19;19918;-70
2023/03/23 10:56:40;;;;;;;2.28;1.45;;;;;;;;;;7392365;19;20074;-72
2023/03/23 10:59:21;;;;;;;2.03;1.25;;;;;;;;;;7391198;19;20005;-71
2023/03/23 11:01:50;;;;;;;1.50;1.30;;;;;;;;;;7392511;19;20016;-70
2023/03/23 11:04:17;;;;;;;4.47;1.25;;;;;;;;;;7393413;19;20494;-70
2023/03/23 11:06:49;;;;;;;1.38;1.27;;;;;;;;;;7390853;19;20010;-70
2023/03/23 11:09:17;;;;;;;1.83;1.33;;;;;;;;;;7389469;19;20021;-71
2023/03/23 11:11:49;;;;;;;1.80;1.20;;;;;;;;;;7388658;19;20744;-71
2023/03/23 11:14:35;;;;;;;2.67;1.10;;;;;;;;;;7392328;19;20346;-72
2023/03/23 11:17:06;;;;;;;2.50;1.15;;;;;;;;;;7389077;19;20021;-70
2023/03/23 11:19:35;;;;;;;1.92;1.30;;;;;;;;;;7385431;19;20011;-72
2023/03/23 11:22:06;;;;;;;1.05;0.95;;;;;;;;;;7385195;19;20585;-70
2023/03/23 11:24:44;;;;;;;1.25;1.10;;;;;;;;;;7384410;19;19995;-71
2023/03/23 11:27:10;;;;;;;1.92;1.10;;;;;;;;;;7387146;19;20013;-70
2023/03/23 11:29:52;;;;;;;1.27;1.17;;;;;;;;;;7387575;19;20003;-71
2023/03/23 11:32:17;;;;;;;1.67;1.15;;;;;;;;;;7388655;19;19999;-71
2023/03/23 11:34:47;;;;;;;1.42;1.10;;;;;;;;;;7389567;19;20018;-71
2023/03/23 11:37:28;;;;;;;1.70;1.25;;;;;;;;;;7395323;19;20006;-70
2023/03/23 11:39:57;;;;;;;1.10;1.00;;;;;;;;;;7393784;19;19998;-70
2023/03/23 11:42:29;;;;;;;1.38;1.17;;;;;;;;;;7392557;19;20003;-71
2023/03/23 11:45:14;;;;;;;1.75;1.20;;;;;;;;;;7390261;19;20006;-73
2023/03/23 11:47:45;;;;;;;1.75;1.30;;;;;;;;;;7391917;19;20366;-71
2023/03/23 11:50:30;;;;;;;1.75;1.30;;;;;;;;;;7390902;19;20007;-71
2023/03/23 11:53:07;;;;;;;1.35;1.20;;;;;;;;;;7386988;19;20003;-70
2023/03/23 11:55:52;;;;;;;1.17;1.17;;;;;;;;;;7390278;19;20021;-69
2023/03/23 11:58:19;;;;;;;2.25;1.30;;;;;;;;;;7391399;19;20013;-72
2023/03/23 12:01:17;;;;;;;2.20;1.40;;;;;;;;;;7390042;19;20029;-71
2023/03/23 12:04:23;;;;;;;1.23;1.08;;;;;;;;;;7390827;19;20006;-71
2023/03/23 12:07:07;;;;;;;1.23;1.10;;;;;;;;;;7387829;19;19999;-71
2023/03/23 12:09:42;;;;;;;1.85;1.38;;;;;;;;;;7390428;19;19999;-71
2023/03/23 12:12:31;;;;;;;2.85;1.23;;;;;;;;;;7391111;19;20443;-71
2023/03/23 12:15:21;;;;;;;3.35;1.33;;;;;;;;;;7388743;19;20466;-72
2023/03/23 12:17:49;;;;;;;2.78;1.20;;;;;;;;;;7390453;19;20341;-71
2023/03/23 12:20:28;;;;;;;3.20;1.50;;;;;;;;;;7388209;19;20006;-72
2023/03/23 12:23:21;;;;;;;2.65;1.40;;;;;;;;;;7388251;19;20486;-71
2023/03/23 12:26:27;;;;;;;1.38;1.10;;;;;;;;;;7389409;19;20007;-72
2023/03/23 12:29:25;;;;;;;1.17;1.05;;;;;;;;;;7385776;19;20015;-71
2023/03/23 12:32:18;;;;;;;2.85;1.40;;;;;;;;;;7389356;19;20074;-71
2023/03/23 12:34:52;;;;;;;3.67;1.13;;;;;;;;;;7387879;19;20146;-72
2023/03/23 12:37:45;;;;;;;1.83;1.30;;;;;;;;;;7394490;19;20010;-71
2023/03/23 12:40:45;;;;;;;1.13;1.02;;;;;;;;;;7396576;19;20471;-71
2023/03/23 12:43:32;;;;;;;2.10;1.15;;;;;;;;;;7395684;19;19991;-71
2023/03/23 12:46:12;;;;;;;1.98;1.20;;;;;;;;;;7395339;19;20062;-71
2023/03/23 12:49:11;;;;;;;2.30;1.30;;;;;;;;;;7395481;19;20001;-71
2023/03/23 12:51:40;;;;;;;2.78;1.10;;;;;;;;;;7393994;19;20262;-70
2023/03/23 12:54:23;;;;;;;3.42;1.30;;;;;;;;;;7396265;19;19998;-71
2023/03/23 12:57:14;;;;;;;1.10;1.00;;;;;;;;;;7390701;19;20257;-72
2023/03/23 12:59:55;;;;;;;1.45;1.30;;;;;;;;;;7396282;19;20054;-72
2023/03/23 13:02:25;;;;;;;1.63;1.17;;;;;;;;;;7396933;19;20021;-71
2023/03/23 13:04:59;;;;;;;2.90;1.38;;;;;;;;;;7394436;19;19999;-70
2023/03/23 13:07:31;;;;;;;2.88;1.20;;;;;;;;;;7398677;19;20393;-70
2023/03/23 13:10:33;;;;;;;2.38;1.25;;;;;;;;;;7398296;19;20472;-71
2023/03/23 13:12:59;;;;;;;1.98;1.35;;;;;;;;;;7394428;19;20002;-71
2023/03/23 13:15:46;;;;;;;1.58;1.20;;;;;;;;;;7394117;19;20010;-71
2023/03/23 13:18:27;;;;;;;3.22;1.30;;;;;;;;;;7396784;19;20078;-71
2023/03/23 13:20:57;;;;;;;2.20;1.17;;;;;;;;;;7393613;19;20001;-71
2023/03/23 13:23:31;;;;;;;1.65;1.55;;;;;;;;;;7395789;19;20005;-70
2023/03/23 13:26:06;;;;;;;1.88;1.30;;;;;;;;;;7392591;19;20344;-71
2023/03/23 13:28:48;;;;;;;2.92;1.30;;;;;;;;;;7392661;19;20464;-70
2023/03/23 13:31:25;;;;;;;1.95;1.30;;;;;;;;;;7393514;19;19998;-70
2023/03/23 13:33:52;;;;;;;2.58;1.38;;;;;;;;;;7395751;19;20058;-71
2023/03/23 13:36:36;;;;;;;2.15;1.17;;;;;;;;;;7393752;19;20007;-71
2023/03/23 13:39:04;;;;;;;1.20;1.10;;;;;;;;;;7391914;19;20010;-69
2023/03/23 13:41:30;;;;;;;1.88;1.38;;;;;;;;;;7395935;19;20079;-71
2023/03/23 13:44:17;;;;;;;2.10;1.23;;;;;;;;;;7395168;19;20460;-71
2023/03/23 13:46:53;;;;;;;2.17;1.38;;;;;;;;;;7391291;19;20007;-70
2023/03/23 13:49:22;;;;;;;1.80;1.20;;;;;;;;;;7394705;19;20007;-69
2023/03/23 13:52:01;;;;;;;2.00;1.40;;;;;;;;;;7393756;19;20002;-71
2023/03/23 13:55:08;;;;;;;3.50;1.48;;;;;;;;;;7395796;19;20355;-69
2023/03/23 13:57:37;;;;;;;1.67;1.35;;;;;;;;;;7392699;19;20361;-70
2023/03/23 14:00:45;;;;;;;3.58;1.60;;;;;;;;;;7395447;19;19990;-70
2023/03/23 14:03:14;;;;;;;1.38;1.20;;;;;;;;;;7389806;19;20033;-70
2023/03/23 14:06:01;;;;;;;2.92;1.25;;;;;;;;;;7392393;19;19994;-72
2023/03/23 14:08:27;;;;;;;1.60;1.17;;;;;;;;;;7395163;19;20025;-72
2023/03/23 14:11:02;;;;;;;1.90;1.40;;;;;;;;;;7392778;19;19998;-70
2023/03/23 14:13:33;;;;;;;4.07;1.40;;;;;;;;;;7392369;19;20672;-71
2023/03/23 14:16:04;;;;;;;1.15;1.00;;;;;;;;;;7394384;19;20080;-71
2023/03/23 14:18:41;;;;;;;1.70;1.35;;;;;;;;;;7393176;19;20012;-71
2023/03/23 14:21:15;;;;;;;3.35;1.20;;;;;;;;;;7390893;19;20406;-72
2023/03/23 14:23:40;;;;;;;1.98;1.20;;;;;;;;;;7394804;19;20019;-71
2023/03/23 14:26:14;;;;;;;1.98;1.45;;;;;;;;;;7393220;19;20003;-72
2023/03/23 14:28:43;;;;;;;2.72;1.30;;;;;;;;;;7392446;19;19991;-71
2023/03/23 14:31:14;;;;;;;2.28;1.20;;;;;;;;;;7390632;19;20555;-72
2023/03/23 14:33:41;;;;;;;2.15;1.30;;;;;;;;;;7394254;19;20006;-71
2023/03/23 14:36:07;;;;;;;1.63;1.30;;;;;;;;;;7393161;19;20416;-71
2023/03/23 14:38:33;;;;;;;1.67;1.20;;;;;;;;;;7391368;19;20028;-72
2023/03/23 14:41:05;;;;;;;1.77;1.27;;;;;;;;;;7391410;19;20334;-72
2023/03/23 14:43:34;;;;;;;2.13;1.25;;;;;;;;;;7394005;19;19998;-71
2023/03/23 14:46:01;;;;;;;2.45;1.35;;;;;;;;;;7393158;19;20019;-70
2023/03/23 14:48:28;;;;;;;3.25;1.35;;;;;;;;;;7393687;19;19995;-72
2023/03/23 14:51:04;;;;;;;3.72;1.40;;;;;;;;;;7393012;19;20015;-72
2023/03/23 14:53:37;;;;;;;3.22;1.00;;;;;;;;;;7393699;19;20005;-72
2023/03/23 14:56:10;;;;;;;3.53;1.40;;;;;;;;;;7392719;19;20002;-72
2023/03/23 14:58:35;;;;;;;1.80;1.30;;;;;;;;;;7388329;19;19995;-72
2023/03/23 15:01:10;;;;;;;1.55;1.27;;;;;;;;;;7391178;19;19998;-71
2023/03/23 15:03:40;;;;;;;2.97;1.30;;;;;;;;;;7390414;19;19999;-73
2023/03/23 15:06:18;;;;;;;1.60;1.20;;;;;;;;;;7393378;19;20022;-71
2023/03/23 15:08:46;;;;;;;2.65;1.33;;;;;;;;;;7392094;19;19994;-71